createdAt,value
2024-02-11T00:00:25.024Z,4.97
2024-02-11T00:03:12.677Z,4.27
2024-02-11T00:06:02.901Z,4.30
2024-02-11T00:08:52.903Z,4.47
2024-02-11T00:11:40.180Z,4.20
2024-02-11T00:14:30.638Z,3.67
2024-02-11T00:17:18.531Z,4.23
2024-02-11T00:20:15.693Z,4.00
2024-02-11T00:23:05.776Z,3.53
2024-02-11T00:25:55.878Z,3.60
2024-02-11T00:28:44.030Z,3.53
2024-02-11T00:31:31.491Z,3.80
2024-02-11T00:34:19.386Z,4.07
2024-02-11T00:37:11.619Z,3.43
2024-02-11T00:40:00.711Z,3.50
2024-02-11T00:42:48.531Z,3.33
2024-02-11T00:45:37.063Z,2.63
2024-02-11T00:48:25.181Z,3.27
2024-02-11T00:51:12.608Z,3.00
2024-02-11T00:54:01.230Z,3.30
2024-02-11T00:56:57.205Z,3.40
2024-02-11T00:59:44.496Z,2.77
2024-02-11T01:02:32.694Z,2.93
2024-02-11T01:05:20.810Z,3.30
2024-02-11T01:08:08.725Z,3.57
2024-02-11T01:10:56.311Z,3.07
2024-02-11T01:13:45.272Z,3.53
2024-02-11T01:16:32.661Z,3.80
2024-02-11T01:19:20.371Z,4.07
2024-02-11T01:22:07.638Z,4.00
2024-02-11T01:24:55.422Z,3.67
2024-02-11T01:27:42.686Z,4.20
2024-02-11T01:30:31.794Z,4.03
2024-02-11T01:33:19.189Z,4.20
2024-02-11T01:36:06.983Z,3.60
2024-02-11T01:38:54.322Z,3.70
2024-02-11T01:41:42.188Z,4.03
2024-02-11T01:44:29.889Z,4.13
2024-02-11T01:47:19.488Z,4.80
2024-02-11T01:50:10.412Z,4.90
2024-02-11T01:52:59.424Z,4.10
2024-02-11T01:55:47.247Z,4.40
2024-02-11T01:58:35.709Z,4.30
2024-02-11T02:01:26.209Z,5.17
2024-02-11T02:04:16.368Z,4.70
2024-02-11T02:07:04.472Z,4.73
2024-02-11T02:09:53.287Z,4.77
2024-02-11T02:12:44.154Z,6.30
2024-02-11T02:15:31.711Z,5.67
2024-02-11T02:18:19.348Z,4.40
2024-02-11T02:21:08.329Z,4.97
2024-02-11T02:23:57.744Z,4.73
2024-02-11T02:26:45.282Z,5.53
2024-02-11T02:29:33.057Z,5.13
2024-02-11T02:32:20.401Z,5.47
2024-02-11T02:35:08.936Z,5.33
2024-02-11T02:37:56.530Z,5.90
2024-02-11T02:40:46.551Z,5.80
2024-02-11T02:43:35.201Z,5.73
2024-02-11T02:46:23.149Z,5.53
2024-02-11T02:49:10.440Z,6.23
2024-02-11T02:51:59.296Z,6.63
2024-02-11T02:54:47.274Z,6.50
2024-02-11T02:57:36.743Z,6.67
2024-02-11T03:00:25.090Z,7.83
2024-02-11T03:03:12.864Z,6.73
2024-02-11T03:06:00.718Z,7.30
2024-02-11T03:08:49.175Z,6.97
2024-02-11T03:11:38.839Z,7.70
2024-02-11T03:14:28.078Z,8.30
2024-02-11T03:17:15.513Z,10.00
2024-02-11T03:20:04.409Z,8.73
2024-02-11T03:22:53.961Z,9.27
2024-02-11T03:25:42.407Z,8.47
2024-02-11T03:28:29.834Z,9.07
2024-02-11T03:31:18.677Z,8.53
2024-02-11T03:34:06.388Z,10.17
2024-02-11T03:36:54.326Z,9.20
2024-02-11T03:39:41.657Z,9.07
2024-02-11T03:42:28.939Z,9.20
2024-02-11T03:45:19.136Z,9.30
2024-02-11T03:48:08.950Z,9.17
2024-02-11T03:50:56.821Z,8.93
2024-02-11T03:53:45.537Z,8.50
2024-02-11T03:56:35.627Z,9.10
2024-02-11T03:59:23.862Z,9.23
2024-02-11T04:02:12.141Z,8.87
2024-02-11T04:05:01.143Z,9.17
2024-02-11T04:07:49.001Z,8.20
2024-02-11T04:10:38.047Z,8.07
2024-02-11T04:13:28.050Z,8.13
2024-02-11T04:16:18.477Z,8.13
2024-02-11T04:19:07.645Z,8.83
2024-02-11T04:21:56.288Z,8.20
2024-02-11T04:24:47.013Z,7.93
2024-02-11T04:27:37.464Z,7.83
2024-02-11T04:30:29.532Z,8.07
2024-02-11T04:33:21.782Z,7.73
2024-02-11T04:36:13.285Z,7.87
2024-02-11T04:39:08.496Z,6.93
2024-02-11T04:41:57.001Z,3.90
2024-02-11T04:44:44.309Z,2.43
2024-02-11T04:47:32.074Z,1.77
2024-02-11T04:50:22.731Z,1.13
2024-02-11T04:53:10.891Z,0.80
2024-02-11T04:56:00.184Z,0.70
2024-02-11T04:58:47.505Z,0.40
2024-02-11T05:01:35.771Z,0.40
2024-02-11T05:04:23.061Z,0.40
2024-02-11T05:07:10.859Z,0.50
2024-02-11T05:09:58.150Z,0.50
2024-02-11T05:12:49.141Z,0.50
2024-02-11T05:15:38.649Z,0.50
2024-02-11T05:18:28.682Z,0.50
2024-02-11T05:21:15.915Z,0.50
2024-02-11T05:24:03.823Z,0.50
2024-02-11T05:26:51.527Z,0.50
2024-02-11T05:29:40.439Z,0.60
2024-02-11T05:32:28.083Z,0.53
2024-02-11T05:35:18.443Z,0.60
2024-02-11T05:38:08.061Z,0.80
2024-02-11T05:40:59.885Z,0.60
2024-02-11T05:43:47.761Z,0.60
2024-02-11T05:46:36.632Z,0.50
2024-02-11T05:49:24.219Z,0.60
2024-02-11T05:52:11.745Z,0.50
2024-02-11T05:54:59.061Z,0.80
2024-02-11T05:57:48.014Z,0.97
2024-02-11T06:00:37.652Z,1.00
2024-02-11T06:03:27.023Z,1.10
2024-02-11T06:06:14.762Z,1.00
2024-02-11T06:09:06.514Z,1.00
2024-02-11T06:11:55.439Z,1.00
2024-02-11T06:14:42.796Z,1.00
2024-02-11T06:17:31.379Z,1.10
2024-02-11T06:20:21.057Z,0.90
2024-02-11T06:23:09.028Z,0.90
2024-02-11T06:26:03.802Z,1.00
2024-02-11T06:28:52.289Z,1.10
2024-02-11T06:31:40.386Z,0.90
2024-02-11T06:34:28.185Z,0.73
2024-02-11T06:37:17.145Z,0.93
2024-02-11T06:40:05.924Z,1.00
2024-02-11T06:42:53.911Z,0.90
2024-02-11T06:45:47.792Z,1.27
2024-02-11T06:48:35.389Z,1.00
2024-02-11T06:51:23.931Z,1.00
2024-02-11T06:54:12.573Z,0.90
2024-02-11T06:57:01.157Z,0.90
2024-02-11T06:59:48.601Z,0.90
2024-02-11T07:02:36.415Z,0.80
2024-02-11T07:05:24.563Z,1.00
2024-02-11T07:08:12.779Z,0.90
2024-02-11T07:11:01.505Z,1.20
2024-02-11T07:13:49.745Z,1.10
2024-02-11T07:16:38.719Z,1.20
2024-02-11T07:19:26.293Z,1.13
2024-02-11T07:22:14.546Z,1.50
2024-02-11T07:25:03.048Z,1.40
2024-02-11T07:27:51.902Z,1.50
2024-02-11T07:30:41.279Z,1.43
2024-02-11T07:33:29.805Z,1.40
2024-02-11T07:36:18.764Z,1.60
2024-02-11T07:39:06.322Z,1.70
2024-02-11T07:41:55.282Z,1.70
2024-02-11T07:44:44.400Z,1.97
2024-02-11T07:47:31.792Z,1.57
2024-02-11T07:50:19.836Z,1.83
2024-02-11T07:53:07.728Z,2.00
2024-02-11T07:55:54.914Z,1.90
2024-02-11T07:58:42.916Z,2.23
2024-02-11T08:01:34.037Z,1.87
2024-02-11T08:04:21.891Z,2.00
2024-02-11T08:07:09.659Z,2.13
2024-02-11T08:09:56.909Z,2.40
2024-02-11T08:12:44.975Z,2.30
2024-02-11T08:15:32.276Z,1.80
2024-02-11T08:18:21.929Z,2.13
2024-02-11T08:21:10.332Z,2.17
2024-02-11T08:23:57.849Z,2.40
2024-02-11T08:26:45.224Z,2.20
2024-02-11T08:29:33.912Z,2.27
2024-02-11T08:32:21.759Z,2.20
2024-02-11T08:35:10.697Z,2.70
2024-02-11T08:37:59.571Z,2.40
2024-02-11T08:40:47.200Z,2.70
2024-02-11T08:43:34.641Z,2.17
2024-02-11T08:46:22.337Z,2.70
2024-02-11T08:49:10.226Z,2.50
2024-02-11T08:51:59.953Z,2.53
2024-02-11T08:54:48.350Z,3.03
2024-02-11T08:57:36.018Z,2.10
2024-02-11T09:00:26.118Z,2.37
2024-02-11T09:03:13.803Z,2.47
2024-02-11T09:06:02.187Z,2.73
2024-02-11T09:08:54.159Z,2.50
2024-02-11T09:11:41.709Z,2.83
2024-02-11T09:14:30.673Z,2.90
2024-02-11T09:17:17.933Z,2.60
2024-02-11T09:20:06.654Z,2.60
2024-02-11T09:22:53.954Z,2.50
2024-02-11T09:25:44.010Z,2.97
2024-02-11T09:28:31.414Z,2.47
2024-02-11T09:31:19.107Z,2.50
2024-02-11T09:34:07.084Z,2.90
2024-02-11T09:36:54.543Z,2.37
2024-02-11T09:39:44.029Z,2.57
2024-02-11T09:42:32.630Z,2.73
2024-02-11T09:45:23.798Z,2.80
2024-02-11T09:48:13.166Z,2.60
2024-02-11T09:51:02.466Z,2.77
2024-02-11T09:53:56.086Z,2.77
2024-02-11T09:56:43.585Z,2.50
2024-02-11T09:59:32.755Z,2.93
2024-02-11T10:02:20.809Z,3.30
2024-02-11T10:05:13.730Z,3.17
2024-02-11T10:08:08.088Z,3.40
2024-02-11T10:10:56.447Z,2.90
2024-02-11T10:13:46.089Z,2.30
2024-02-11T10:16:36.082Z,2.60
2024-02-11T10:19:23.539Z,3.33
2024-02-11T10:22:19.924Z,2.97
2024-02-11T10:25:17.930Z,2.57
2024-02-11T10:28:07.610Z,2.63
2024-02-11T10:30:56.706Z,2.83
2024-02-11T10:33:45.724Z,3.10
2024-02-11T10:36:36.711Z,2.80
2024-02-11T10:39:25.531Z,2.90
2024-02-11T10:42:14.691Z,3.33
2024-02-11T10:45:02.832Z,3.50
2024-02-11T10:47:50.209Z,3.63
2024-02-11T10:50:38.933Z,3.43
2024-02-11T10:53:34.159Z,2.93
2024-02-11T10:56:22.624Z,3.23
2024-02-11T10:59:14.938Z,3.33
2024-02-11T11:02:02.477Z,3.20
2024-02-11T11:04:51.936Z,3.60
2024-02-11T11:07:41.852Z,3.30
2024-02-11T11:10:36.315Z,3.60
2024-02-11T11:13:26.276Z,3.30
2024-02-11T11:16:14.051Z,3.47
2024-02-11T11:19:03.786Z,3.60
2024-02-11T11:21:52.193Z,3.40
2024-02-11T11:24:40.821Z,3.40
2024-02-11T11:27:28.637Z,3.47
2024-02-11T11:30:15.955Z,3.57
2024-02-11T11:33:05.381Z,3.43
2024-02-11T11:35:57.946Z,3.20
2024-02-11T11:38:46.066Z,3.30
2024-02-11T11:41:34.950Z,3.30
2024-02-11T11:44:22.797Z,3.13
2024-02-11T11:47:10.264Z,3.33
2024-02-11T11:49:58.451Z,3.10
2024-02-11T11:52:47.363Z,2.63
2024-02-11T11:55:35.125Z,3.37
2024-02-11T11:58:25.240Z,3.03
2024-02-11T12:01:12.740Z,3.20
2024-02-11T12:04:00.537Z,3.13
2024-02-11T12:06:48.563Z,2.63
2024-02-11T12:09:36.558Z,3.07
2024-02-11T12:12:23.845Z,3.10
2024-02-11T12:15:12.720Z,3.10
2024-02-11T12:18:00.836Z,3.30
2024-02-11T12:20:49.426Z,2.73
2024-02-11T12:23:37.085Z,3.13
2024-02-11T12:26:28.320Z,2.97
2024-02-11T12:29:24.489Z,3.20
2024-02-11T12:32:13.934Z,3.47
2024-02-11T12:35:02.023Z,3.33
2024-02-11T12:37:49.758Z,3.57
2024-02-11T12:40:38.519Z,2.27
2024-02-11T12:43:27.023Z,3.33
2024-02-11T12:46:14.832Z,2.50
2024-02-11T12:49:03.856Z,3.20
2024-02-11T12:51:51.713Z,3.40
2024-02-11T12:54:39.914Z,2.70
2024-02-11T12:57:27.888Z,3.20
2024-02-11T13:00:18.134Z,3.30
2024-02-11T13:03:06.052Z,2.93
2024-02-11T13:05:55.733Z,3.10
2024-02-11T13:08:43.523Z,3.43
2024-02-11T13:11:32.224Z,2.97
2024-02-11T13:14:19.933Z,4.10
2024-02-11T13:17:08.367Z,2.90
2024-02-11T13:19:55.534Z,3.50
2024-02-11T13:22:50.778Z,2.70
2024-02-11T13:25:39.121Z,3.57
2024-02-11T13:28:26.752Z,2.70
2024-02-11T13:31:23.738Z,2.77
2024-02-11T13:34:13.764Z,2.90
2024-02-11T13:37:00.984Z,3.47
2024-02-11T13:39:49.636Z,3.40
2024-02-11T13:42:37.333Z,3.40
2024-02-11T13:45:24.607Z,3.27
2024-02-11T13:48:12.637Z,3.10
2024-02-11T13:51:00.548Z,3.70
2024-02-11T13:53:48.515Z,3.27
2024-02-11T13:56:37.157Z,2.93
2024-02-11T13:59:24.738Z,3.47
2024-02-11T14:02:15.084Z,2.90
2024-02-11T14:05:05.107Z,3.63
2024-02-11T14:07:52.578Z,2.80
2024-02-11T14:10:41.464Z,3.03
2024-02-11T14:13:30.335Z,3.20
2024-02-11T14:16:18.559Z,3.13
2024-02-11T14:19:06.322Z,2.83
2024-02-11T14:21:54.003Z,3.07
2024-02-11T14:24:41.330Z,3.37
2024-02-11T14:27:28.716Z,3.10
2024-02-11T14:30:19.200Z,2.60
2024-02-11T14:33:08.344Z,2.93
2024-02-11T14:35:58.607Z,2.90
2024-02-11T14:38:47.174Z,2.63
2024-02-11T14:41:37.170Z,3.07
2024-02-11T14:44:24.649Z,2.93
2024-02-11T14:47:13.411Z,2.80
2024-02-11T14:50:01.550Z,2.90
2024-02-11T14:52:49.665Z,2.77
2024-02-11T14:55:37.109Z,2.80
2024-02-11T14:58:27.330Z,2.70
2024-02-11T15:01:16.198Z,2.57
2024-02-11T15:04:05.063Z,2.97
2024-02-11T15:06:53.057Z,2.53
2024-02-11T15:09:40.627Z,2.73
2024-02-11T15:12:28.655Z,2.90
2024-02-11T15:15:16.758Z,2.87
2024-02-11T15:18:04.751Z,3.30
2024-02-11T15:20:53.572Z,3.10
2024-02-11T15:23:40.974Z,3.10
2024-02-11T15:26:28.587Z,2.77
2024-02-11T15:29:16.589Z,2.93
2024-02-11T15:32:04.445Z,2.30
2024-02-11T15:34:51.690Z,3.00
2024-02-11T15:37:40.280Z,2.50
2024-02-11T15:40:27.704Z,3.00
2024-02-11T15:43:15.544Z,2.80
2024-02-11T15:46:03.566Z,3.53
2024-02-11T15:48:51.132Z,2.60
2024-02-11T15:51:41.573Z,2.87
2024-02-11T15:54:30.193Z,2.67
2024-02-11T15:57:17.754Z,2.80
2024-02-11T16:00:06.803Z,2.73
2024-02-11T16:02:54.854Z,2.87
2024-02-11T16:05:42.239Z,2.60
2024-02-11T16:08:31.399Z,2.70
2024-02-11T16:11:20.321Z,3.23
2024-02-11T16:14:08.731Z,3.00
2024-02-11T16:16:56.179Z,2.60
2024-02-11T16:19:43.503Z,2.60
2024-02-11T16:22:30.846Z,2.90
2024-02-11T16:25:18.472Z,2.97
2024-02-11T16:28:07.543Z,3.30
2024-02-11T16:30:55.511Z,3.10
2024-02-11T16:33:45.705Z,3.17
2024-02-11T16:36:33.046Z,3.10
2024-02-11T16:39:20.893Z,2.83
2024-02-11T16:42:08.988Z,2.80
2024-02-11T16:45:00.024Z,3.47
2024-02-11T16:47:49.431Z,3.00
2024-02-11T16:50:36.841Z,2.87
2024-02-11T16:53:24.115Z,2.53
2024-02-11T16:56:15.754Z,3.77
2024-02-11T16:59:02.978Z,3.63
2024-02-11T17:01:51.601Z,3.80
2024-02-11T17:04:39.270Z,3.60
2024-02-11T17:07:27.944Z,3.60
2024-02-11T17:10:15.492Z,3.90
2024-02-11T17:13:05.160Z,4.33
2024-02-11T17:15:52.932Z,4.70
2024-02-11T17:18:41.992Z,4.40
2024-02-11T17:21:29.572Z,3.47
2024-02-11T17:24:17.059Z,2.93
2024-02-11T17:27:06.141Z,3.50
2024-02-11T17:29:53.674Z,3.47
2024-02-11T17:32:48.335Z,3.23
2024-02-11T17:35:42.113Z,3.40
2024-02-11T17:38:30.192Z,3.37
2024-02-11T17:41:20.185Z,3.30
2024-02-11T17:44:09.774Z,4.10
2024-02-11T17:46:57.490Z,3.40
2024-02-11T17:49:44.680Z,3.30
2024-02-11T17:52:37.453Z,3.30
2024-02-11T17:55:25.388Z,3.13
2024-02-11T17:58:13.259Z,3.00
2024-02-11T18:01:00.687Z,3.10
2024-02-11T18:03:49.046Z,3.67
2024-02-11T18:06:38.983Z,2.83
2024-02-11T18:09:28.174Z,3.00
2024-02-11T18:12:17.203Z,2.97
2024-02-11T18:15:06.573Z,3.17
2024-02-11T18:17:55.079Z,3.03
2024-02-11T18:20:43.681Z,4.03
2024-02-11T18:23:33.094Z,4.00
2024-02-11T18:26:22.708Z,3.20
2024-02-11T18:29:11.591Z,2.90
2024-02-11T18:31:58.875Z,3.47
2024-02-11T18:34:48.196Z,3.20
2024-02-11T18:37:35.474Z,3.50
2024-02-11T18:40:22.909Z,3.50
2024-02-11T18:43:11.769Z,3.37
2024-02-11T18:46:00.357Z,3.57
2024-02-11T18:48:49.281Z,3.43
2024-02-11T18:51:37.930Z,3.80
2024-02-11T18:54:25.440Z,3.57
2024-02-11T18:57:14.327Z,3.57
2024-02-11T19:00:07.642Z,3.67
2024-02-11T19:02:55.807Z,3.40
2024-02-11T19:05:44.609Z,3.23
2024-02-11T19:08:35.392Z,3.40
2024-02-11T19:11:23.114Z,3.77
2024-02-11T19:14:10.283Z,3.37
2024-02-11T19:16:59.492Z,4.07
2024-02-11T19:19:47.072Z,3.90
2024-02-11T19:22:38.845Z,3.60
2024-02-11T19:25:26.178Z,3.43
2024-02-11T19:28:15.605Z,2.67
2024-02-11T19:31:04.173Z,3.03
2024-02-11T19:33:53.996Z,3.50
2024-02-11T19:36:43.078Z,3.50
2024-02-11T19:39:30.978Z,3.30
2024-02-11T19:42:20.747Z,3.07
2024-02-11T19:45:10.185Z,2.97
2024-02-11T19:47:57.942Z,2.80
2024-02-11T19:50:47.913Z,3.03
2024-02-11T19:53:39.231Z,3.70
2024-02-11T19:56:28.484Z,3.37
2024-02-11T19:59:16.477Z,3.20
2024-02-11T20:02:08.066Z,3.30
2024-02-11T20:04:56.696Z,3.60
2024-02-11T20:07:46.841Z,3.47
2024-02-11T20:10:35.645Z,2.80
2024-02-11T20:13:23.182Z,2.90
2024-02-11T20:16:13.830Z,3.20
2024-02-11T20:19:01.571Z,2.97
2024-02-11T20:21:51.162Z,2.63
2024-02-11T20:24:41.838Z,2.70
2024-02-11T20:27:30.220Z,2.93
2024-02-11T20:30:17.710Z,2.70
2024-02-11T20:33:09.851Z,2.73
2024-02-11T20:35:58.059Z,2.60
2024-02-11T20:38:47.136Z,2.43
2024-02-11T20:41:35.837Z,2.60
2024-02-11T20:44:27.305Z,2.67
2024-02-11T20:47:15.905Z,2.97
2024-02-11T20:50:09.128Z,2.70
2024-02-11T20:52:56.565Z,2.20
2024-02-11T20:55:45.099Z,2.63
2024-02-11T20:58:34.688Z,2.77
2024-02-11T21:01:23.825Z,2.60
2024-02-11T21:04:11.399Z,2.70
2024-02-11T21:06:58.889Z,2.70
2024-02-11T21:09:46.237Z,2.83
2024-02-11T21:12:34.991Z,2.47
2024-02-11T21:15:24.656Z,2.83
2024-02-11T21:18:13.041Z,2.20
2024-02-11T21:21:00.562Z,2.40
2024-02-11T21:23:48.198Z,2.03
2024-02-11T21:26:35.814Z,2.40
2024-02-11T21:29:23.698Z,2.27
2024-02-11T21:32:13.772Z,2.60
2024-02-11T21:35:04.602Z,2.10
2024-02-11T21:37:52.124Z,2.37
2024-02-11T21:40:41.500Z,2.10
2024-02-11T21:43:29.017Z,1.90
2024-02-11T21:46:17.620Z,1.73
2024-02-11T21:49:08.704Z,1.70
2024-02-11T21:51:56.473Z,1.60
2024-02-11T21:54:44.971Z,1.67
2024-02-11T21:57:32.620Z,1.80
2024-02-11T22:00:22.404Z,1.87
2024-02-11T22:03:10.021Z,1.87
2024-02-11T22:05:59.185Z,1.90
2024-02-11T22:08:47.171Z,2.47
2024-02-11T22:11:35.909Z,2.00
2024-02-11T22:14:23.434Z,1.70
2024-02-11T22:17:11.180Z,1.60
2024-02-11T22:20:02.665Z,1.90
2024-02-11T22:22:52.552Z,2.00
2024-02-11T22:25:40.561Z,1.50
2024-02-11T22:28:28.249Z,1.80
2024-02-11T22:31:16.089Z,1.87
2024-02-11T22:34:04.013Z,1.70
2024-02-11T22:36:51.627Z,2.20
2024-02-11T22:39:40.524Z,1.70
2024-02-11T22:42:28.477Z,1.50
2024-02-11T22:45:18.327Z,1.63
2024-02-11T22:48:07.163Z,1.40
2024-02-11T22:50:55.573Z,1.20
2024-02-11T22:53:43.243Z,1.27
2024-02-11T22:56:32.317Z,1.70
2024-02-11T22:59:19.827Z,1.30
2024-02-11T23:02:07.664Z,1.20
2024-02-11T23:04:55.016Z,1.50
2024-02-11T23:07:43.792Z,1.40
2024-02-11T23:10:32.346Z,1.70
2024-02-11T23:13:21.548Z,1.37
2024-02-11T23:16:11.326Z,1.30
2024-02-11T23:18:58.836Z,1.30
2024-02-11T23:21:46.596Z,1.50
2024-02-11T23:24:36.285Z,1.30
2024-02-11T23:27:23.674Z,1.30
2024-02-11T23:30:15.040Z,1.30
2024-02-11T23:33:03.142Z,1.50
2024-02-11T23:35:51.381Z,1.30
2024-02-11T23:38:39.116Z,1.20
2024-02-11T23:41:27.040Z,1.30
2024-02-11T23:44:18.761Z,1.40
2024-02-11T23:47:10.842Z,1.10
2024-02-11T23:49:58.422Z,1.30
2024-02-11T23:52:49.282Z,1.10
2024-02-11T23:55:36.807Z,1.30
2024-02-11T23:58:24.677Z,1.23
